createdAt,value
2023-05-12T00:00:49.956Z,77.51
2023-05-12T00:03:16.846Z,77.49
2023-05-12T00:05:43.680Z,77.04
2023-05-12T00:08:10.683Z,77.21
2023-05-12T00:10:37.523Z,79.53
2023-05-12T00:13:04.480Z,77.68
2023-05-12T00:15:31.418Z,77.90
2023-05-12T00:17:58.467Z,77.60
2023-05-12T00:20:25.406Z,77.05
2023-05-12T00:22:52.264Z,77.39
2023-05-12T00:25:19.323Z,77.80
2023-05-12T00:27:46.173Z,77.30
2023-05-12T00:30:13.158Z,77.13
2023-05-12T00:32:39.911Z,77.01
2023-05-12T00:35:06.909Z,75.50
2023-05-12T00:37:33.761Z,75.31
2023-05-12T00:40:01.149Z,75.45
2023-05-12T00:42:28.262Z,75.25
2023-05-12T00:44:54.887Z,75.59
2023-05-12T00:47:22.893Z,74.66
2023-05-12T00:49:49.668Z,74.92
2023-05-12T00:52:16.631Z,76.05
2023-05-12T00:54:44.376Z,75.02
2023-05-12T00:57:11.668Z,76.67
2023-05-12T00:59:38.918Z,75.99
2023-05-12T01:02:07.206Z,75.82
2023-05-12T01:04:36.170Z,75.62
2023-05-12T01:07:19.134Z,75.12
2023-05-12T01:09:46.628Z,75.09
2023-05-12T01:12:13.327Z,75.54
2023-05-12T01:14:41.387Z,76.30
2023-05-12T01:17:12.827Z,74.85
2023-05-12T01:19:47.515Z,75.88
2023-05-12T01:22:17.593Z,75.81
2023-05-12T01:24:54.883Z,75.87
2023-05-12T01:27:25.342Z,75.77
2023-05-12T01:29:55.965Z,76.26
2023-05-12T01:32:23.381Z,75.59
2023-05-12T01:34:53.250Z,76.60
2023-05-12T01:37:21.186Z,76.89
2023-05-12T01:39:48.266Z,79.00
2023-05-12T01:42:19.326Z,79.69
2023-05-12T01:44:46.959Z,78.77
2023-05-12T01:47:15.731Z,78.63
2023-05-12T01:49:47.736Z,79.71
2023-05-12T01:52:15.981Z,79.54
2023-05-12T01:54:43.996Z,79.68
2023-05-12T01:57:11.981Z,79.15
2023-05-12T01:59:39.220Z,79.39
2023-05-12T02:02:07.159Z,78.56
2023-05-12T02:04:35.076Z,78.82
2023-05-12T02:07:03.780Z,79.75
2023-05-12T02:09:31.111Z,78.64
2023-05-12T02:12:02.293Z,78.79
2023-05-12T02:14:29.935Z,78.61
2023-05-12T02:16:57.295Z,79.00
2023-05-12T02:19:25.612Z,80.54
2023-05-12T02:21:52.688Z,79.61
2023-05-12T02:24:21.478Z,79.38
2023-05-12T02:26:48.748Z,79.25
2023-05-12T02:29:15.846Z,79.70
2023-05-12T02:31:42.947Z,81.40
2023-05-12T02:34:16.115Z,80.10
2023-05-12T02:36:43.460Z,80.21
2023-05-12T02:39:11.924Z,79.93
2023-05-12T02:41:38.736Z,78.49
2023-05-12T02:44:05.669Z,77.50
2023-05-12T02:46:32.787Z,77.25
2023-05-12T02:48:59.574Z,78.31
2023-05-12T02:51:26.529Z,79.11
2023-05-12T02:53:53.367Z,79.54
2023-05-12T02:56:21.040Z,78.39
2023-05-12T02:58:48.496Z,78.89
2023-05-12T03:01:16.318Z,80.11
2023-05-12T03:03:44.193Z,81.57
2023-05-12T03:06:12.347Z,79.85
2023-05-12T03:08:39.398Z,79.88
2023-05-12T03:11:08.173Z,81.04
2023-05-12T03:13:35.419Z,80.64
2023-05-12T03:16:03.051Z,80.32
2023-05-12T03:18:31.131Z,80.73
2023-05-12T03:20:58.429Z,80.67
2023-05-12T03:23:25.873Z,80.28
2023-05-12T03:25:52.948Z,80.19
2023-05-12T03:28:23.335Z,79.71
2023-05-12T03:30:50.639Z,81.36
2023-05-12T03:33:18.625Z,79.67
2023-05-12T03:35:46.625Z,79.54
2023-05-12T03:38:13.638Z,79.06
2023-05-12T03:40:40.990Z,79.38
2023-05-12T03:43:08.791Z,80.48
2023-05-12T03:45:35.659Z,79.69
2023-05-12T03:48:02.952Z,81.49
2023-05-12T03:50:30.323Z,81.21
2023-05-12T03:52:57.020Z,82.06
2023-05-12T03:55:23.910Z,83.39
2023-05-12T03:57:50.993Z,82.62
2023-05-12T04:00:18.672Z,83.39
2023-05-12T04:02:46.465Z,81.94
2023-05-12T04:05:14.557Z,82.45
2023-05-12T04:07:41.935Z,81.89
2023-05-12T04:10:09.124Z,80.04
2023-05-12T04:12:37.238Z,80.91
2023-05-12T04:15:06.430Z,81.06
2023-05-12T04:17:33.173Z,82.56
2023-05-12T04:19:59.878Z,81.68
2023-05-12T04:22:28.178Z,81.19
2023-05-12T04:24:54.931Z,80.59
2023-05-12T04:27:22.271Z,80.99
2023-05-12T04:29:49.016Z,80.07
2023-05-12T04:32:16.033Z,81.72
2023-05-12T04:34:43.073Z,81.98
2023-05-12T04:37:10.025Z,80.95
2023-05-12T04:39:37.432Z,82.03
2023-05-12T04:42:04.846Z,80.90
2023-05-12T04:44:37.945Z,81.59
2023-05-12T04:47:05.783Z,82.51
2023-05-12T04:49:32.464Z,80.59
2023-05-12T04:51:59.473Z,82.31
2023-05-12T04:54:26.430Z,82.38
2023-05-12T04:56:53.867Z,82.70
2023-05-12T04:59:22.056Z,82.04
2023-05-12T05:01:51.298Z,83.06
2023-05-12T05:04:18.060Z,82.05
2023-05-12T05:06:46.244Z,82.60
2023-05-12T05:09:14.067Z,82.68
2023-05-12T05:11:40.791Z,82.37
2023-05-12T05:14:07.512Z,82.51
2023-05-12T05:16:36.032Z,84.49
2023-05-12T05:19:06.538Z,83.89
2023-05-12T05:21:36.185Z,83.67
2023-05-12T05:24:03.637Z,82.34
2023-05-12T05:26:32.707Z,81.32
2023-05-12T05:28:59.714Z,82.14
2023-05-12T05:31:28.715Z,81.79
2023-05-12T05:33:55.962Z,81.73
2023-05-12T05:36:26.498Z,80.86
2023-05-12T05:38:54.412Z,80.79
2023-05-12T05:41:22.762Z,81.08
2023-05-12T05:43:49.831Z,81.73
2023-05-12T05:46:16.949Z,82.05
2023-05-12T05:48:43.555Z,81.43
2023-05-12T05:51:11.698Z,80.62
2023-05-12T05:53:38.816Z,81.28
2023-05-12T05:56:06.001Z,81.21
2023-05-12T05:58:34.953Z,80.90
2023-05-12T06:01:04.017Z,82.05
2023-05-12T06:03:31.529Z,81.24
2023-05-12T06:05:58.238Z,79.55
2023-05-12T06:08:25.351Z,79.01
2023-05-12T06:10:54.290Z,78.30
2023-05-12T06:13:23.891Z,78.06
2023-05-12T06:15:51.004Z,79.44
2023-05-12T06:18:17.686Z,78.34
2023-05-12T06:20:44.404Z,77.83
2023-05-12T06:23:11.003Z,78.38
2023-05-12T06:25:38.657Z,77.76
2023-05-12T06:28:05.242Z,77.44
2023-05-12T06:30:31.993Z,76.89
2023-05-12T06:32:59.537Z,77.46
2023-05-12T06:35:26.300Z,77.40
2023-05-12T06:37:52.958Z,77.17
2023-05-12T06:40:19.805Z,75.86
2023-05-12T06:42:47.404Z,75.72
2023-05-12T06:45:19.664Z,75.74
2023-05-12T06:47:46.613Z,76.87
2023-05-12T06:50:13.600Z,77.96
2023-05-12T06:52:42.057Z,76.93
2023-05-12T06:55:09.100Z,76.84
2023-05-12T06:57:35.833Z,76.97
2023-05-12T07:00:03.253Z,74.84
2023-05-12T07:02:30.796Z,75.22
2023-05-12T07:04:57.794Z,75.55
2023-05-12T07:07:24.723Z,73.28
2023-05-12T07:09:51.310Z,72.66
2023-05-12T07:12:18.019Z,73.00
2023-05-12T07:14:44.654Z,73.93
2023-05-12T07:17:11.388Z,72.30
2023-05-12T07:19:39.655Z,71.93
2023-05-12T07:22:06.561Z,72.11
2023-05-12T07:24:33.141Z,71.97
2023-05-12T07:26:59.919Z,71.75
2023-05-12T07:29:26.823Z,70.37
2023-05-12T07:31:53.796Z,69.25
2023-05-12T07:34:21.161Z,68.26
2023-05-12T07:36:47.716Z,68.99
2023-05-12T07:39:19.083Z,70.41
2023-05-12T07:41:45.648Z,68.61
2023-05-12T07:44:12.382Z,69.06
2023-05-12T07:46:39.319Z,70.04
2023-05-12T07:49:07.321Z,69.02
2023-05-12T07:51:33.910Z,68.21
2023-05-12T07:54:00.852Z,68.19
2023-05-12T07:56:27.800Z,68.29
2023-05-12T07:58:54.652Z,67.66
2023-05-12T08:01:21.222Z,67.26
2023-05-12T08:03:48.084Z,67.61
2023-05-12T08:06:14.871Z,66.71
2023-05-12T08:08:41.538Z,66.94
2023-05-12T08:11:08.184Z,65.58
2023-05-12T08:13:36.676Z,62.23
2023-05-12T08:16:03.843Z,60.46
2023-05-12T08:18:30.598Z,59.67
2023-05-12T08:20:57.284Z,62.30
2023-05-12T08:23:23.951Z,61.39
2023-05-12T08:25:50.680Z,59.38
2023-05-12T08:28:17.219Z,61.22
2023-05-12T08:30:45.168Z,59.62
2023-05-12T08:33:12.651Z,58.96
2023-05-12T08:35:39.654Z,58.70
2023-05-12T08:38:06.738Z,56.79
2023-05-12T08:40:45.115Z,55.65
2023-05-12T08:43:26.429Z,54.77
2023-05-12T08:45:57.680Z,57.24
2023-05-12T08:48:29.328Z,56.15
2023-05-12T08:50:57.887Z,56.62
2023-05-12T08:53:25.861Z,57.27
2023-05-12T08:57:09.016Z,60.37
2023-05-12T08:58:41.993Z,58.14
2023-05-12T09:01:11.964Z,58.16
2023-05-12T09:03:39.188Z,60.38
2023-05-12T09:06:06.988Z,60.43
2023-05-12T09:08:35.337Z,60.16
2023-05-12T09:11:02.439Z,58.24
2023-05-12T09:14:01.449Z,57.17
2023-05-12T09:16:31.768Z,60.11
2023-05-12T09:19:00.473Z,59.23
2023-05-12T09:21:28.551Z,57.92
2023-05-12T09:23:59.345Z,56.68
2023-05-12T09:26:28.034Z,57.39
2023-05-12T09:29:04.143Z,57.04
2023-05-12T09:31:31.250Z,55.27
2023-05-12T09:33:58.361Z,56.46
2023-05-12T09:36:26.016Z,55.70
2023-05-12T09:39:07.072Z,52.99
2023-05-12T09:41:38.551Z,54.44
2023-05-12T09:44:06.879Z,53.50
2023-05-12T09:46:33.685Z,53.44
2023-05-12T09:49:01.113Z,53.25
2023-05-12T09:51:27.797Z,52.77
2023-05-12T09:53:54.717Z,52.81
2023-05-12T09:56:22.937Z,54.03
2023-05-12T09:58:50.190Z,52.87
2023-05-12T10:01:23.160Z,52.78
2023-05-12T10:03:58.143Z,51.77
2023-05-12T10:06:34.195Z,51.80
2023-05-12T10:09:21.602Z,51.94
2023-05-12T10:11:53.512Z,51.26
2023-05-12T10:14:22.907Z,50.76
2023-05-12T10:16:50.252Z,49.92
2023-05-12T10:19:18.710Z,49.69
2023-05-12T10:21:46.753Z,49.06
2023-05-12T10:24:17.182Z,48.58
2023-05-12T10:26:44.729Z,48.82
2023-05-12T10:29:13.077Z,48.83
2023-05-12T10:31:40.206Z,49.78
2023-05-12T10:34:07.371Z,49.42
2023-05-12T10:36:48.370Z,49.65
2023-05-12T10:39:18.307Z,49.73
2023-05-12T10:41:44.931Z,49.80
2023-05-12T10:44:12.105Z,49.56
2023-05-12T10:46:38.784Z,49.12
2023-05-12T10:49:10.315Z,48.59
2023-05-12T10:51:43.186Z,47.49
2023-05-12T10:54:11.877Z,46.96
2023-05-12T10:56:38.661Z,47.31
2023-05-12T10:59:13.914Z,47.62
2023-05-12T11:01:43.450Z,46.40
2023-05-12T11:04:13.011Z,46.84
2023-05-12T11:06:40.971Z,46.90
2023-05-12T11:09:09.108Z,46.75
2023-05-12T11:11:36.360Z,46.86
2023-05-12T11:14:03.091Z,46.24
2023-05-12T11:16:30.152Z,46.49
2023-05-12T11:19:06.404Z,45.34
2023-05-12T11:21:33.419Z,44.20
2023-05-12T11:24:03.049Z,44.16
2023-05-12T11:26:30.309Z,44.66
2023-05-12T11:28:58.113Z,45.26
2023-05-12T11:31:25.224Z,46.33
2023-05-12T11:34:12.043Z,46.58
2023-05-12T11:36:44.348Z,47.11
2023-05-12T11:39:16.976Z,47.29
2023-05-12T11:41:45.014Z,47.08
2023-05-12T11:44:20.182Z,46.84
2023-05-12T11:47:02.029Z,46.43
2023-05-12T11:49:30.181Z,45.89
2023-05-12T11:52:01.556Z,45.21
2023-05-12T11:54:30.350Z,45.14
2023-05-12T11:56:58.411Z,44.59
2023-05-12T11:59:29.848Z,43.97
2023-05-12T12:01:57.967Z,44.08
2023-05-12T12:04:34.825Z,44.26
2023-05-12T12:07:01.809Z,44.63
2023-05-12T12:09:37.252Z,44.66
2023-05-12T12:12:05.692Z,44.48
2023-05-12T12:14:33.341Z,44.46
2023-05-12T12:17:00.346Z,44.03
2023-05-12T12:19:27.915Z,44.30
2023-05-12T12:21:55.464Z,43.54
2023-05-12T12:24:22.253Z,44.36
2023-05-12T12:26:48.878Z,43.95
2023-05-12T12:29:15.565Z,43.44
2023-05-12T12:31:42.256Z,43.96
2023-05-12T12:34:09.004Z,43.41
2023-05-12T12:36:35.792Z,44.03
2023-05-12T12:39:03.357Z,45.13
2023-05-12T12:41:30.319Z,43.86
2023-05-12T12:43:57.164Z,44.04
2023-05-12T12:46:23.884Z,43.78
2023-05-12T12:48:50.447Z,43.75
2023-05-12T12:51:17.218Z,43.81
2023-05-12T12:53:45.565Z,42.77
2023-05-12T12:56:12.692Z,43.09
2023-05-12T12:58:39.284Z,42.75
2023-05-12T13:01:06.828Z,42.67
2023-05-12T13:03:33.400Z,42.43
2023-05-12T13:06:00.234Z,41.49
2023-05-12T13:08:27.263Z,40.88
2023-05-12T13:10:54.783Z,42.07
2023-05-12T13:13:21.332Z,40.08
2023-05-12T13:15:48.258Z,39.81
2023-05-12T13:18:14.817Z,38.82
2023-05-12T13:20:43.607Z,39.58
2023-05-12T13:23:10.170Z,38.84
2023-05-12T13:25:36.802Z,38.67
2023-05-12T13:28:03.304Z,38.31
2023-05-12T13:30:29.981Z,37.96
2023-05-12T13:32:56.849Z,38.00
2023-05-12T13:35:23.951Z,38.04
2023-05-12T13:37:50.552Z,38.15
2023-05-12T13:40:17.396Z,38.10
2023-05-12T13:42:43.937Z,38.29
2023-05-12T13:45:11.495Z,37.75
2023-05-12T13:47:38.128Z,37.95
2023-05-12T13:50:06.345Z,38.31
2023-05-12T13:52:33.664Z,36.77
2023-05-12T13:55:00.392Z,36.91
2023-05-12T13:57:26.912Z,37.01
2023-05-12T13:59:57.778Z,38.04
2023-05-12T14:02:24.448Z,38.84
2023-05-12T14:04:51.400Z,39.40
2023-05-12T14:07:19.314Z,39.86
2023-05-12T14:09:45.884Z,40.02
2023-05-12T14:12:15.068Z,40.51
2023-05-12T14:14:47.204Z,40.45
2023-05-12T14:17:14.053Z,40.63
2023-05-12T14:19:41.076Z,40.85
2023-05-12T14:22:18.768Z,41.48
2023-05-12T14:24:51.792Z,40.37
2023-05-12T14:27:18.571Z,40.95
2023-05-12T14:29:45.457Z,41.38
2023-05-12T14:32:12.648Z,40.45
2023-05-12T14:34:39.737Z,40.91
2023-05-12T14:37:06.355Z,40.09
2023-05-12T14:39:33.225Z,39.81
2023-05-12T14:41:59.990Z,38.84
2023-05-12T14:44:26.843Z,38.94
2023-05-12T14:46:53.392Z,38.26
2023-05-12T14:49:21.658Z,38.93
2023-05-12T14:51:49.448Z,38.56
2023-05-12T14:54:25.360Z,38.71
2023-05-12T14:56:52.964Z,38.42
2023-05-12T14:59:19.900Z,38.58
2023-05-12T15:01:46.604Z,38.00
2023-05-12T15:04:13.393Z,38.04
2023-05-12T15:06:40.223Z,37.37
2023-05-12T15:09:07.307Z,37.09
2023-05-12T15:11:33.920Z,37.27
2023-05-12T15:14:00.530Z,37.90
2023-05-12T15:16:28.044Z,37.85
2023-05-12T15:18:54.876Z,37.62
2023-05-12T15:21:21.655Z,37.49
2023-05-12T15:23:48.314Z,37.70
2023-05-12T15:28:47.806Z,37.96
2023-05-12T15:31:14.458Z,38.22
2023-05-12T15:33:41.440Z,37.86
2023-05-12T15:36:09.067Z,36.98
2023-05-12T15:38:35.657Z,36.97
2023-05-12T15:41:02.283Z,36.96
2023-05-12T15:43:29.429Z,35.67
2023-05-12T15:45:57.044Z,36.10
2023-05-12T15:48:23.799Z,35.65
2023-05-12T15:50:50.485Z,35.78
2023-05-12T15:53:17.253Z,35.98
2023-05-12T15:55:44.248Z,36.74
2023-05-12T15:58:11.839Z,36.65
2023-05-12T16:00:40.799Z,36.82
2023-05-12T16:03:07.538Z,36.74
2023-05-12T16:05:37.779Z,36.58
2023-05-12T16:08:04.829Z,36.56
2023-05-12T16:10:31.670Z,36.74
2023-05-12T16:12:58.355Z,36.93
2023-05-12T16:15:24.921Z,37.11
2023-05-12T16:17:51.596Z,37.90
2023-05-12T16:20:19.004Z,37.76
2023-05-12T16:22:45.866Z,37.78
2023-05-12T16:25:12.427Z,38.08
2023-05-12T16:27:39.166Z,37.44
2023-05-12T16:30:07.158Z,37.13
2023-05-12T16:32:33.934Z,36.07
2023-05-12T16:35:00.822Z,35.61
2023-05-12T16:37:27.927Z,36.68
2023-05-12T16:39:54.959Z,37.88
2023-05-12T16:42:21.777Z,39.14
2023-05-12T16:44:48.379Z,42.00
2023-05-12T16:47:15.129Z,46.07
2023-05-12T16:49:41.983Z,46.92
2023-05-12T16:52:09.916Z,48.93
2023-05-12T16:54:38.011Z,51.74
2023-05-12T16:57:04.956Z,55.71
2023-05-12T16:59:32.468Z,64.27
2023-05-12T17:02:01.270Z,66.92
2023-05-12T17:04:28.232Z,68.85
2023-05-12T17:06:55.782Z,69.81
2023-05-12T17:09:23.383Z,70.98
2023-05-12T17:11:50.173Z,70.72
2023-05-12T17:14:19.242Z,68.92
2023-05-12T17:16:46.650Z,69.41
2023-05-12T17:19:14.100Z,68.59
2023-05-12T17:21:41.247Z,68.73
2023-05-12T17:24:08.225Z,66.78
2023-05-12T17:26:35.482Z,66.22
2023-05-12T17:29:05.200Z,66.35
2023-05-12T17:31:31.925Z,66.51
2023-05-12T17:33:58.498Z,65.74
2023-05-12T17:36:25.174Z,68.96
2023-05-12T17:38:52.151Z,67.67
2023-05-12T17:41:19.378Z,68.31
2023-05-12T17:43:46.013Z,67.47
2023-05-12T17:46:13.445Z,67.83
2023-05-12T17:48:40.336Z,67.68
2023-05-12T17:51:07.384Z,68.07
2023-05-12T17:53:35.649Z,67.27
2023-05-12T17:56:02.292Z,67.55
2023-05-12T17:58:28.761Z,67.66
2023-05-12T18:00:55.338Z,68.19
2023-05-12T18:03:24.814Z,68.63
2023-05-12T18:05:53.189Z,68.82
2023-05-12T18:08:21.595Z,69.20
2023-05-12T18:10:48.238Z,68.35
2023-05-12T18:13:15.549Z,68.10
2023-05-12T18:15:42.441Z,67.25
2023-05-12T18:18:10.347Z,67.29
2023-05-12T18:20:37.015Z,68.23
2023-05-12T18:23:03.517Z,68.03
2023-05-12T18:25:30.206Z,68.00
2023-05-12T18:27:56.770Z,67.95
2023-05-12T18:30:23.413Z,67.14
2023-05-12T18:32:50.868Z,65.78
2023-05-12T18:35:18.037Z,66.56
2023-05-12T18:37:44.947Z,66.62
2023-05-12T18:40:12.284Z,66.68
2023-05-12T18:42:38.878Z,66.35
2023-05-12T18:45:06.464Z,67.03
2023-05-12T18:47:33.636Z,67.71
2023-05-12T18:50:00.383Z,67.41
2023-05-12T18:52:29.538Z,66.48
2023-05-12T18:54:56.122Z,65.55
2023-05-12T18:57:22.644Z,65.18
2023-05-12T18:59:49.264Z,66.05
2023-05-12T19:02:15.887Z,65.79
2023-05-12T19:04:43.000Z,65.79
2023-05-12T19:07:10.030Z,65.35
2023-05-12T19:09:37.102Z,65.22
2023-05-12T19:12:05.837Z,64.86
2023-05-12T19:14:33.065Z,64.71
2023-05-12T19:16:59.608Z,65.03
2023-05-12T19:19:26.351Z,64.80
2023-05-12T19:21:53.066Z,64.45
2023-05-12T19:24:19.763Z,64.44
2023-05-12T19:26:46.487Z,64.26
2023-05-12T19:29:13.273Z,64.16
2023-05-12T19:31:39.976Z,64.19
2023-05-12T19:34:07.141Z,63.51
2023-05-12T19:36:33.972Z,63.78
2023-05-12T19:39:01.121Z,63.94
2023-05-12T19:41:29.687Z,63.69
2023-05-12T19:43:56.761Z,63.62
2023-05-12T19:46:23.783Z,63.71
2023-05-12T19:48:51.673Z,63.58
2023-05-12T19:51:18.627Z,64.47
2023-05-12T19:53:45.266Z,63.15
2023-05-12T19:56:11.776Z,62.35
2023-05-12T19:58:38.424Z,62.59
2023-05-12T20:01:05.196Z,63.28
2023-05-12T20:03:32.123Z,63.16
2023-05-12T20:05:58.936Z,62.19
2023-05-12T20:08:25.677Z,63.17
2023-05-12T20:10:52.495Z,61.49
2023-05-12T20:13:19.198Z,60.99
2023-05-12T20:15:45.972Z,61.42
2023-05-12T20:18:15.464Z,61.84
2023-05-12T20:20:43.015Z,60.61
2023-05-12T20:23:09.802Z,59.90
2023-05-12T20:25:36.644Z,60.82
2023-05-12T20:28:03.623Z,60.30
2023-05-12T20:30:30.362Z,60.10
2023-05-12T20:32:57.028Z,60.38
2023-05-12T20:35:23.861Z,60.57
2023-05-12T20:37:50.786Z,60.89
2023-05-12T20:40:17.504Z,60.48
2023-05-12T20:42:46.148Z,60.84
2023-05-12T20:45:13.976Z,60.96
2023-05-12T20:47:40.828Z,60.98
2023-05-12T20:50:08.632Z,60.56
2023-05-12T20:52:39.986Z,60.02
2023-05-12T20:55:07.476Z,59.94
2023-05-12T20:57:34.262Z,60.72
2023-05-12T21:00:00.888Z,60.81
2023-05-12T21:02:28.869Z,61.11
2023-05-12T21:04:56.309Z,60.95
2023-05-12T21:07:22.785Z,61.82
2023-05-12T21:09:49.423Z,61.01
2023-05-12T21:12:16.099Z,61.68
2023-05-12T21:14:45.124Z,61.82
2023-05-12T21:17:12.457Z,62.53
2023-05-12T21:19:40.263Z,61.51
2023-05-12T21:22:09.038Z,62.77
2023-05-12T21:24:37.460Z,62.39
2023-05-12T21:27:05.842Z,61.84
2023-05-12T21:29:33.466Z,62.70
2023-05-12T21:32:00.787Z,62.59
2023-05-12T21:34:27.689Z,61.59
2023-05-12T21:36:54.677Z,62.31
2023-05-12T21:39:21.882Z,62.58
2023-05-12T21:41:48.625Z,63.34
2023-05-12T21:44:15.358Z,62.12
2023-05-12T21:46:42.646Z,62.36
2023-05-12T21:49:09.668Z,61.59
2023-05-12T21:51:36.498Z,62.56
2023-05-12T21:54:03.169Z,62.63
2023-05-12T21:56:29.701Z,61.87
2023-05-12T21:58:56.338Z,60.91
2023-05-12T22:01:23.017Z,62.87
2023-05-12T22:03:49.876Z,63.19
2023-05-12T22:06:36.733Z,64.15
2023-05-12T22:09:05.108Z,63.02
2023-05-12T22:11:31.622Z,62.40
2023-05-12T22:13:58.543Z,63.25
2023-05-12T22:16:31.136Z,64.79
2023-05-12T22:19:05.516Z,64.88
2023-05-12T22:21:32.378Z,64.32
2023-05-12T22:23:58.968Z,63.20
2023-05-12T22:26:25.808Z,63.71
2023-05-12T22:28:52.429Z,63.95
2023-05-12T22:31:19.086Z,65.80
2023-05-12T22:33:45.739Z,63.15
2023-05-12T22:36:12.306Z,64.05
2023-05-12T22:38:38.908Z,65.03
2023-05-12T22:41:05.543Z,64.12
2023-05-12T22:43:32.070Z,64.47
2023-05-12T22:46:26.737Z,64.35
2023-05-12T22:49:30.128Z,65.59
2023-05-12T22:51:56.929Z,66.16
2023-05-12T22:54:26.519Z,66.18
2023-05-12T22:56:53.173Z,65.48
2023-05-12T22:59:19.723Z,64.79
2023-05-12T23:01:46.587Z,65.30
2023-05-12T23:04:13.241Z,65.63
2023-05-12T23:06:39.942Z,64.77
2023-05-12T23:09:06.502Z,64.72
2023-05-12T23:11:33.404Z,64.54
2023-05-12T23:14:00.202Z,64.65
2023-05-12T23:16:26.973Z,64.90
2023-05-12T23:18:53.824Z,63.14
2023-05-12T23:21:20.661Z,63.67
2023-05-12T23:23:47.200Z,63.35
2023-05-12T23:26:13.850Z,65.04
2023-05-12T23:28:40.474Z,63.97
2023-05-12T23:31:07.034Z,63.19
2023-05-12T23:33:35.922Z,63.75
2023-05-12T23:36:02.948Z,62.64
2023-05-12T23:38:29.577Z,64.21
2023-05-12T23:40:56.164Z,64.92
2023-05-12T23:43:22.843Z,64.62
2023-05-12T23:45:49.577Z,63.79
2023-05-12T23:48:16.260Z,63.37
2023-05-12T23:50:43.140Z,64.63
2023-05-12T23:53:09.662Z,63.16
2023-05-12T23:55:37.545Z,62.61
2023-05-12T23:58:04.071Z,63.22
